Monday, November 20, 2017, 7:05 PM GMT
Back to Local

CWSS, St. Stephen, N. B.

Location: , , Canada Lat: 45.217
Local Time: 7:05 PM GMT (19:05 GMT) Lon: -67.25
Time Zone: GMT Elev: 85 ft

Show me the last for .
Show Coded

Time T Td Feel RH Dir Speed Gust Alt SLP Vis Weather Sky Remarks
2017-11-20 18:00 31 18 20 57 270° 10 18 - 29.65 0 Peak wind: 25 mph (22 kts) from 250° at 28 min
2017-11-20 17:00 34 15 22 44 270° 14 25 - 29.64 0 Peak wind: 27 mph (24 kts) from 250° at 10 min
2017-11-20 16:00 34 17 22 50 280° 13 23 - 29.63 0 Peak wind: 26 mph (23 kts) from 270° at 37 min
2017-11-20 15:00 31 17 19 55 280° 13 21 - 29.64 0 Peak wind: 26 mph (23 kts) from 300° at 32 min
2017-11-20 14:00 31 18 17 59 280° 13 23 - 29.62 0 Peak wind: 23 mph (20 kts) from 270° at 56 min
2017-11-20 13:00 31 19 17 60 270° 12 28 - 29.60 0 Peak wind: 27 mph (24 kts) from 290° at 52 min
2017-11-20 12:00 31 22 26 68 270° 6 - - 29.57 0 None
2017-11-20 11:00 31 22 26 69 250° 5 - - 29.55 0 None
2017-11-20 10:00 30 21 25 67 250° 5 - - 29.52 0 None
2017-11-20 09:00 31 22 22 70 270° 9 - - 29.49 0 Peak wind: 21 mph (19 kts) from 300° at 20 min
2017-11-20 08:00 32 22 25 67 280° 8 - - 29.46 0 Peak wind: 19 mph (17 kts) from 290° at 16 min
2017-11-20 07:00 32 23 20 70 270° 9 17 - 29.46 0 Peak wind: 20 mph (18 kts) from 260° at 30 min
2017-11-20 06:00 31 25 24 75 270° 8 - - 29.44 0 Peak wind: 20 mph (18 kts) from 250° at 17 min
2017-11-20 05:00 31 23 19 72 280° 12 21 - 29.41 0 Peak wind: 21 mph (19 kts) from 260° at 47 min
2017-11-20 04:00 31 25 19 75 280° 12 21 - 29.39 0 Peak wind: 21 mph (19 kts) from 260° at 09 min
2017-11-20 03:00 34 27 22 74 280° 10 22 - 29.33 0 Peak wind: 21 mph (19 kts) from 250° at 14 min
2017-11-20 02:00 37 30 25 76 260° 12 24 - 29.29 0 Peak wind: 24 mph (21 kts) from 270° at 56 min
2017-11-20 01:00 38 34 33 84 280° 6 - - 29.23 0 None
2017-11-20 00:00 39 34 29 81 290° 12 20 - 29.19 0 Peak wind: 28 mph (25 kts) from 270° at 28 min
Pressure rising rapidly
2017-11-19 23:00 44 41 36 87 280° 10 22 - 29.11 0 Peak wind: 27 mph (24 kts) from 260° at 32 min
Pressure rising rapidly
1-hr Precip Total: 0.03"
2017-11-19 22:00 54 52 - 92 200° 7 - - 29.02 0 Peak wind: 21 mph (19 kts) from 210° at 02 min
2017-11-19 21:00 55 53 - 90 180° 13 23 - 29.01 0 Peak wind: 25 mph (22 kts) from 180° at 01 min
2017-11-19 20:00 56 54 - 93 180° 12 23 - 29.00 0 Peak wind: 24 mph (21 kts) from 160° at 23 min
1-hr Precip Total: 0.07"

Support USWX by starting your Amazon purchase here.